Time;durP1;ratioP1;P1;durP2;ratioP2;P2;SDS_P1;SDS_P2;PMS_P1;PMS_P2;Temp;Humidity;BMP_temperature;BMP_pressure;BME280_temperature;BME280_humidity;BME280_pressure;Samples;Min_cycle;Max_cycle;Signal;HPM_P1;HPM_P2
2022/06/25 00:01:57;;;;;;;2.88;0.80;;;22.50;60.20;;;;;;6053551;23;20003;-92
2022/06/25 00:07:07;;;;;;;3.70;1.47;;;22.50;60.30;;;;;;6055561;23;20029;-92
2022/06/25 00:09:32;;;;;;;4.15;0.98;;;22.50;60.40;;;;;;6053046;23;20242;-92
2022/06/25 00:14:43;;;;;;;2.60;0.57;;;22.50;60.40;;;;;;6056507;23;20038;-92
2022/06/25 00:17:08;;;;;;;4.30;1.00;;;22.50;60.40;;;;;;6052371;23;20442;-93
2022/06/25 00:19:34;;;;;;;3.30;1.40;;;22.50;60.50;;;;;;6055153;23;20431;-92
2022/06/25 00:22:00;;;;;;;1.98;0.93;;;22.50;60.50;;;;;;6051019;23;20018;-92
2022/06/25 00:24:26;;;;;;;3.50;0.90;;;22.50;60.60;;;;;;6055617;23;20010;-91
2022/06/25 00:26:51;;;;;;;4.00;0.82;;;22.50;60.70;;;;;;6053052;23;20350;-93
2022/06/25 00:29:17;;;;;;;4.00;1.15;;;22.50;60.70;;;;;;6054874;23;20324;-92
2022/06/25 00:31:43;;;;;;;5.55;0.93;;;22.50;60.70;;;;;;6056434;23;20011;-93
2022/06/25 00:34:09;;;;;;;2.90;1.27;;;22.50;60.80;;;;;;6054750;23;20021;-92
2022/06/25 00:36:35;;;;;;;3.97;0.82;;;22.50;60.80;;;;;;6056015;23;20007;-92
2022/06/25 00:39:01;;;;;;;3.70;0.98;;;22.50;60.90;;;;;;6032404;23;20416;-92
2022/06/25 00:41:26;;;;;;;4.15;0.90;;;22.50;61.00;;;;;;6056060;23;20007;-92
2022/06/25 00:43:52;;;;;;;4.97;0.90;;;22.50;60.90;;;;;;6055574;23;20014;-92
2022/06/25 00:46:18;;;;;;;3.33;0.93;;;22.50;61.00;;;;;;6055615;23;20446;-92
2022/06/25 00:48:43;;;;;;;4.63;0.88;;;22.50;61.00;;;;;;6056240;23;20061;-92
2022/06/25 00:51:15;;;;;;;3.03;1.17;;;22.40;61.00;;;;;;6056276;23;20018;-93
2022/06/25 00:53:44;;;;;;;3.13;1.00;;;22.40;61.00;;;;;;6030800;23;20026;-90
2022/06/25 00:56:12;;;;;;;3.03;0.80;;;22.40;61.00;;;;;;6031647;23;20037;-92
2022/06/25 00:58:43;;;;;;;3.83;0.82;;;22.40;61.10;;;;;;6033257;23;20011;-93
2022/06/25 01:01:09;;;;;;;7.03;1.30;;;22.40;61.20;;;;;;6032167;23;20447;-92
2022/06/25 01:03:36;;;;;;;2.00;0.90;;;22.40;61.30;;;;;;6056892;23;20018;-93
2022/06/25 01:06:04;;;;;;;3.13;1.00;;;22.40;61.30;;;;;;6030476;23;20022;-92
2022/06/25 01:08:34;;;;;;;2.97;1.10;;;22.40;61.50;;;;;;6030440;23;20019;-92
2022/06/25 01:11:00;;;;;;;1.55;0.82;;;22.40;61.50;;;;;;6054396;23;20022;-92
2022/06/25 01:13:27;;;;;;;2.70;1.30;;;22.40;61.60;;;;;;6031860;23;20025;-93
2022/06/25 01:15:53;;;;;;;1.60;0.93;;;22.30;61.60;;;;;;6055423;23;20465;-92
2022/06/25 01:18:18;;;;;;;2.35;0.65;;;22.30;61.70;;;;;;6029688;23;20015;-93
2022/06/25 01:20:44;;;;;;;4.45;1.15;;;22.30;61.80;;;;;;6053172;23;20007;-92
2022/06/25 01:23:13;;;;;;;4.65;0.90;;;22.30;61.90;;;;;;6053149;23;20025;-92
2022/06/25 01:25:41;;;;;;;3.38;0.88;;;22.30;62.10;;;;;;6031727;23;20011;-92
2022/06/25 01:28:08;;;;;;;3.08;0.95;;;22.30;62.80;;;;;;6030439;23;20019;-92
2022/06/25 01:30:34;;;;;;;2.45;0.88;;;22.30;62.40;;;;;;6058515;23;20015;-90
2022/06/25 01:32:59;;;;;;;3.15;0.55;;;22.30;62.70;;;;;;6058959;23;20354;-93
2022/06/25 01:35:25;;;;;;;1.45;0.90;;;22.30;62.90;;;;;;6081100;23;20264;-93
2022/06/25 01:37:51;;;;;;;3.83;1.00;;;22.30;63.40;;;;;;6057797;23;20117;-92
2022/06/25 01:40:17;;;;;;;2.05;0.60;;;22.30;63.60;;;;;;6031407;23;20086;-91
2022/06/25 01:42:58;;;;;;;1.30;0.55;;;22.30;63.70;;;;;;6055954;23;20462;-91
2022/06/25 01:45:26;;;;;;;0.93;0.43;;;22.30;63.80;;;;;;6058984;23;20014;-92
2022/06/25 01:47:51;;;;;;;2.75;0.47;;;22.30;64.00;;;;;;6056838;23;20474;-93
2022/06/25 01:50:17;;;;;;;0.80;0.40;;;22.30;64.10;;;;;;6054491;23;20007;-92
2022/06/25 01:52:43;;;;;;;2.17;0.20;;;22.20;64.00;;;;;;6078530;23;20082;-93
2022/06/25 01:55:10;;;;;;;0.60;0.30;;;22.10;64.10;;;;;;6056607;23;20446;-93
2022/06/25 01:57:36;;;;;;;0.52;0.30;;;22.10;64.20;;;;;;6056772;23;20007;-93
2022/06/25 02:00:11;;;;;;;1.33;0.50;;;22.10;64.30;;;;;;6058179;23;20061;-90
2022/06/25 02:02:39;;;;;;;1.17;0.30;;;22.10;64.40;;;;;;6057413;23;20015;-91
2022/06/25 02:05:06;;;;;;;0.82;0.30;;;22.00;64.30;;;;;;6031049;23;20354;-93
2022/06/25 02:07:32;;;;;;;0.90;0.40;;;22.00;64.30;;;;;;6057699;23;20019;-92
2022/06/25 02:09:58;;;;;;;2.72;0.30;;;22.10;64.40;;;;;;6058853;23;20018;-92
2022/06/25 02:12:24;;;;;;;1.05;0.68;;;22.10;64.40;;;;;;6055246;23;20007;-93
2022/06/25 02:14:49;;;;;;;1.05;0.50;;;22.00;64.40;;;;;;6056075;23;20018;-92
2022/06/25 02:17:15;;;;;;;5.20;0.50;;;22.00;64.40;;;;;;6079851;23;20006;-92
2022/06/25 02:19:41;;;;;;;1.75;0.50;;;22.00;64.50;;;;;;6056287;23;20461;-92
2022/06/25 02:22:07;;;;;;;0.47;0.13;;;22.00;64.50;;;;;;6055450;23;20442;-92
2022/06/25 02:24:33;;;;;;;0.75;0.38;;;22.00;64.50;;;;;;6055454;23;20041;-91
2022/06/25 02:26:59;;;;;;;0.65;0.30;;;22.10;64.50;;;;;;6053113;23;21003;-92
2022/06/25 02:29:25;;;;;;;2.33;0.50;;;22.10;64.50;;;;;;6057175;23;20125;-90
2022/06/25 02:31:50;;;;;;;2.65;0.95;;;22.00;64.50;;;;;;6057244;23;20530;-91
2022/06/25 02:34:16;;;;;;;3.75;0.60;;;22.00;64.50;;;;;;6054897;23;20081;-92
2022/06/25 02:36:42;;;;;;;1.67;0.40;;;22.00;64.50;;;;;;6056800;23;20030;-92
2022/06/25 02:39:08;;;;;;;0.77;0.45;;;22.00;64.50;;;;;;6056738;23;20022;-92
2022/06/25 02:41:33;;;;;;;2.22;0.45;;;22.00;64.50;;;;;;6055753;23;20010;-92
2022/06/25 02:43:59;;;;;;;1.95;0.50;;;22.00;64.60;;;;;;6057055;23;20019;-92
2022/06/25 02:46:26;;;;;;;0.60;0.30;;;22.00;64.60;;;;;;6056318;23;20014;-92
2022/06/25 02:48:51;;;;;;;1.20;0.35;;;22.00;64.60;;;;;;6057883;23;20023;-92
2022/06/25 02:51:17;;;;;;;1.13;0.35;;;21.90;64.60;;;;;;6055779;23;20343;-92
2022/06/25 02:53:43;;;;;;;2.30;0.50;;;21.90;64.60;;;;;;6054709;23;20121;-93
2022/06/25 02:58:56;;;;;;;0.95;0.50;;;21.90;64.90;;;;;;6056767;23;20074;-92
2022/06/25 03:01:23;;;;;;;1.13;0.40;;;21.90;64.90;;;;;;6055407;23;20003;-92
2022/06/25 03:03:49;;;;;;;1.02;0.43;;;21.90;64.90;;;;;;6055904;23;20066;-90
2022/06/25 03:06:15;;;;;;;3.00;0.43;;;21.90;65.10;;;;;;6033939;23;20054;-93
2022/06/25 03:08:41;;;;;;;1.58;0.50;;;21.90;65.20;;;;;;6054738;23;20390;-92
2022/06/25 03:11:07;;;;;;;1.65;0.32;;;21.90;65.20;;;;;;6055347;23;20444;-92
2022/06/25 03:13:36;;;;;;;1.67;0.40;;;21.90;65.20;;;;;;6053937;23;20533;-92
2022/06/25 03:16:05;;;;;;;3.40;0.68;;;21.90;65.30;;;;;;6057405;23;20030;-92
2022/06/25 03:18:32;;;;;;;1.45;0.43;;;21.90;65.20;;;;;;6032027;23;20031;-93
2022/06/25 03:20:58;;;;;;;2.90;0.38;;;21.90;65.30;;;;;;6054720;23;20007;-92
2022/06/25 03:23:24;;;;;;;2.75;0.50;;;21.90;65.40;;;;;;6054716;23;20070;-91
2022/06/25 03:25:50;;;;;;;2.05;0.77;;;21.90;65.50;;;;;;6056239;23;20065;-93
2022/06/25 03:28:16;;;;;;;1.67;0.40;;;21.90;65.60;;;;;;6057575;23;20015;-92
2022/06/25 03:30:42;;;;;;;1.83;0.60;;;21.90;65.60;;;;;;6056102;23;20015;-92
2022/06/25 03:33:08;;;;;;;2.03;1.00;;;21.90;65.60;;;;;;6031597;23;20019;-92
2022/06/25 03:35:34;;;;;;;2.92;0.40;;;21.90;65.70;;;;;;6055227;23;20065;-90
2022/06/25 03:37:59;;;;;;;1.25;0.50;;;21.90;65.80;;;;;;6079645;23;20019;-93
2022/06/25 03:40:25;;;;;;;0.70;0.50;;;21.90;65.80;;;;;;6057108;23;20105;-92
2022/06/25 03:42:51;;;;;;;1.40;0.50;;;21.90;65.80;;;;;;6054596;23;20011;-92
2022/06/25 03:45:17;;;;;;;2.60;0.68;;;21.90;65.70;;;;;;6057919;23;20010;-92
2022/06/25 03:47:50;;;;;;;1.40;0.55;;;21.90;65.70;;;;;;6057850;23;20342;-91
2022/06/25 03:50:17;;;;;;;1.48;0.55;;;21.90;65.70;;;;;;6056230;23;20015;-90
2022/06/25 03:52:43;;;;;;;1.45;0.50;;;21.90;65.60;;;;;;6032063;23;20010;-92
2022/06/25 03:55:09;;;;;;;1.00;0.63;;;21.90;65.50;;;;;;6056445;23;20007;-92
2022/06/25 03:57:36;;;;;;;1.48;0.60;;;21.90;65.50;;;;;;6079275;23;20468;-93
2022/06/25 04:00:05;;;;;;;1.65;0.57;;;21.90;65.40;;;;;;6080510;23;20014;-92
2022/06/25 04:02:31;;;;;;;4.18;0.73;;;21.90;65.40;;;;;;6031468;23;20006;-93
2022/06/25 04:04:57;;;;;;;2.97;0.63;;;21.90;65.40;;;;;;6054745;23;20022;-92
2022/06/25 04:07:23;;;;;;;2.50;0.85;;;21.90;66.00;;;;;;6033101;23;20094;-92
2022/06/25 04:09:49;;;;;;;0.95;0.60;;;21.90;65.40;;;;;;6054557;23;20018;-92
2022/06/25 04:12:14;;;;;;;1.35;0.52;;;21.90;65.40;;;;;;6054821;23;20447;-91
2022/06/25 04:14:40;;;;;;;1.23;0.55;;;21.90;65.30;;;;;;6056306;23;20072;-91
2022/06/25 04:17:06;;;;;;;1.83;0.68;;;21.90;65.20;;;;;;6055335;23;20010;-91
2022/06/25 04:19:39;;;;;;;3.05;0.80;;;21.90;65.10;;;;;;6076300;23;20089;-91
2022/06/25 04:22:07;;;;;;;1.05;0.50;;;21.90;64.90;;;;;;6030408;23;20018;-92
2022/06/25 04:24:35;;;;;;;2.47;0.80;;;21.90;64.90;;;;;;6053639;23;20251;-92
2022/06/25 04:27:02;;;;;;;2.17;0.40;;;21.90;64.80;;;;;;6031822;23;20014;-92
2022/06/25 04:29:29;;;;;;;2.33;0.60;;;21.90;64.70;;;;;;6030455;23;20076;-92
2022/06/25 04:31:54;;;;;;;0.80;0.50;;;21.90;64.60;;;;;;6055269;23;20021;-91
2022/06/25 04:34:20;;;;;;;2.13;0.50;;;21.90;64.50;;;;;;6055148;23;20023;-92
2022/06/25 04:36:46;;;;;;;3.30;0.70;;;21.90;64.40;;;;;;6055735;23;20003;-92
2022/06/25 04:39:12;;;;;;;2.15;0.40;;;21.90;64.30;;;;;;6054595;23;20090;-92
2022/06/25 04:41:37;;;;;;;3.10;0.52;;;21.90;64.20;;;;;;6056284;23;20078;-92
2022/06/25 04:44:03;;;;;;;1.27;0.57;;;21.90;64.20;;;;;;6055561;23;20022;-92
2022/06/25 04:46:30;;;;;;;2.00;0.70;;;21.90;64.10;;;;;;6055194;23;20011;-92
2022/06/25 04:48:59;;;;;;;2.13;0.60;;;21.90;64.10;;;;;;6053132;23;20022;-91
2022/06/25 04:51:26;;;;;;;2.00;0.80;;;21.90;64.20;;;;;;6054494;23;20022;-91
2022/06/25 04:53:55;;;;;;;2.60;0.68;;;21.90;64.30;;;;;;6077971;23;20021;-93
2022/06/25 04:56:28;;;;;;;1.30;0.60;;;21.90;64.40;;;;;;6032868;23;20358;-91
2022/06/25 04:58:55;;;;;;;2.40;0.60;;;21.90;64.60;;;;;;6030903;23;20021;-92
2022/06/25 05:01:22;;;;;;;3.63;1.20;;;21.90;64.60;;;;;;6031619;23;20103;-93
2022/06/25 05:03:48;;;;;;;4.07;0.70;;;21.90;64.70;;;;;;6053956;23;20015;-92
2022/06/25 05:06:14;;;;;;;2.55;0.60;;;21.90;64.80;;;;;;6055836;23;20018;-92
2022/06/25 05:08:40;;;;;;;2.67;0.75;;;21.80;64.70;;;;;;6033191;23;20023;-92
2022/06/25 05:11:06;;;;;;;2.95;0.60;;;21.80;64.80;;;;;;6057392;23;20090;-92
2022/06/25 05:13:32;;;;;;;2.83;0.77;;;21.80;64.90;;;;;;6031258;23;20023;-90
2022/06/25 05:15:58;;;;;;;2.45;1.00;;;21.80;64.90;;;;;;6035343;23;20007;-91
2022/06/25 05:18:24;;;;;;;4.78;0.88;;;21.80;64.80;;;;;;6079290;23;20124;-90
2022/06/25 05:20:49;;;;;;;3.53;0.70;;;21.80;64.70;;;;;;6055670;23;20043;-91
2022/06/25 05:23:15;;;;;;;3.20;0.70;;;21.80;64.60;;;;;;6057062;23;20102;-92
2022/06/25 05:25:41;;;;;;;3.65;0.90;;;21.80;64.60;;;;;;6056587;23;20014;-92
2022/06/25 05:28:08;;;;;;;3.28;0.82;;;21.70;64.40;;;;;;6056949;23;20402;-93
2022/06/25 05:30:34;;;;;;;1.48;0.52;;;21.80;64.40;;;;;;6057641;23;20748;-91
2022/06/25 05:33:00;;;;;;;3.20;1.38;;;21.70;64.40;;;;;;6031916;23;20015;-92
2022/06/25 05:35:26;;;;;;;1.13;0.57;;;21.70;64.50;;;;;;6059883;23;20021;-91
2022/06/25 05:37:52;;;;;;;1.17;0.70;;;21.70;64.60;;;;;;6081109;23;20007;-92
2022/06/25 05:40:18;;;;;;;3.35;0.80;;;21.70;64.70;;;;;;6057239;23;20006;-92
2022/06/25 05:42:44;;;;;;;4.32;0.77;;;21.70;64.80;;;;;;6057063;23;20015;-92
2022/06/25 05:45:10;;;;;;;3.35;0.70;;;21.70;64.90;;;;;;6058086;23;20427;-91
2022/06/25 05:47:36;;;;;;;3.70;0.95;;;21.70;65.00;;;;;;6081125;23;20506;-92
2022/06/25 05:50:03;;;;;;;5.00;0.90;;;21.70;65.00;;;;;;6031093;23;20139;-93
2022/06/25 05:52:29;;;;;;;2.38;0.85;;;21.70;65.20;;;;;;6032639;23;20064;-92
2022/06/25 05:54:54;;;;;;;1.85;0.80;;;21.70;65.20;;;;;;6056611;23;20030;-90
2022/06/25 05:57:20;;;;;;;2.50;0.85;;;21.70;65.30;;;;;;6058153;23;20007;-92
2022/06/25 05:59:46;;;;;;;2.35;0.85;;;21.70;65.30;;;;;;6056159;23;20011;-93
2022/06/25 06:02:12;;;;;;;4.78;0.82;;;21.70;65.30;;;;;;6057245;23;20401;-91
2022/06/25 06:04:38;;;;;;;4.65;1.02;;;21.70;65.30;;;;;;6057025;23;20066;-92
2022/06/25 06:07:04;;;;;;;2.78;0.70;;;21.70;65.40;;;;;;6055715;23;20015;-92
2022/06/25 06:09:32;;;;;;;0.60;0.47;;;21.70;65.40;;;;;;6031153;23;20043;-92
2022/06/25 06:11:58;;;;;;;2.20;0.90;;;21.70;65.50;;;;;;6032009;23;20011;-92
2022/06/25 06:14:24;;;;;;;1.95;0.80;;;21.70;65.50;;;;;;6032827;23;20085;-92
2022/06/25 06:16:50;;;;;;;2.67;0.80;;;21.70;65.60;;;;;;6056330;23;20427;-90
2022/06/25 06:19:16;;;;;;;6.53;1.02;;;21.70;65.60;;;;;;6055213;23;20019;-91
2022/06/25 06:21:42;;;;;;;2.53;1.02;;;21.70;65.60;;;;;;6054176;23;20670;-91
2022/06/25 06:24:08;;;;;;;6.05;1.10;;;21.70;65.60;;;;;;6057746;23;20015;-92
2022/06/25 06:26:34;;;;;;;3.45;0.80;;;21.70;65.60;;;;;;6050821;23;20045;-92
2022/06/25 06:29:00;;;;;;;6.78;1.20;;;21.70;65.50;;;;;;6055681;23;20022;-93
2022/06/25 06:31:26;;;;;;;2.97;0.65;;;21.70;65.50;;;;;;6055593;23;20022;-92
2022/06/25 06:33:52;;;;;;;5.53;0.98;;;21.60;65.50;;;;;;6056083;23;20018;-93
2022/06/25 06:36:17;;;;;;;3.72;0.70;;;21.70;65.50;;;;;;6054093;23;20094;-91
2022/06/25 06:38:43;;;;;;;3.38;1.00;;;21.70;65.40;;;;;;6057843;23;20025;-93
2022/06/25 06:41:09;;;;;;;2.50;0.60;;;21.70;65.50;;;;;;6054379;23;20506;-92
2022/06/25 06:43:36;;;;;;;3.10;0.73;;;21.70;65.50;;;;;;6054278;23;20418;-92
2022/06/25 06:46:02;;;;;;;2.58;0.90;;;21.70;65.50;;;;;;6057136;23;20469;-92
2022/06/25 06:48:28;;;;;;;6.50;1.10;;;21.70;65.50;;;;;;6054387;23;20011;-92
2022/06/25 06:50:53;;;;;;;3.25;1.08;;;21.70;65.90;;;;;;6076006;23;20021;-92
2022/06/25 06:53:21;;;;;;;5.25;1.00;;;21.60;65.30;;;;;;6055009;23;20023;-92
2022/06/25 06:55:47;;;;;;;3.72;0.70;;;21.60;65.40;;;;;;6058034;23;20014;-93
2022/06/25 06:58:13;;;;;;;2.22;0.77;;;21.60;65.40;;;;;;6032666;23;20007;-93
2022/06/25 07:00:39;;;;;;;5.40;0.90;;;21.60;65.50;;;;;;6053655;23;20558;-92
2022/06/25 07:03:05;;;;;;;4.10;1.08;;;21.60;65.50;;;;;;6056715;23;20007;-92
2022/06/25 07:05:30;;;;;;;4.95;1.55;;;21.60;65.40;;;;;;6056631;23;20026;-92
2022/06/25 07:07:56;;;;;;;4.50;0.85;;;21.60;65.40;;;;;;6055351;23;20450;-93
2022/06/25 07:10:22;;;;;;;3.45;0.75;;;21.50;65.40;;;;;;6055268;23;20023;-92
2022/06/25 07:12:48;;;;;;;4.53;1.00;;;21.50;65.50;;;;;;6055626;23;20074;-93
2022/06/25 07:15:14;;;;;;;4.68;0.95;;;21.50;65.50;;;;;;6055706;23;20019;-91
2022/06/25 07:17:39;;;;;;;4.18;0.90;;;21.50;65.40;;;;;;6058178;23;20101;-92
2022/06/25 07:20:06;;;;;;;7.90;1.50;;;21.50;65.30;;;;;;6057086;23;20014;-92
2022/06/25 07:22:33;;;;;;;8.77;1.30;;;21.50;65.30;;;;;;6032125;23;20342;-93
2022/06/25 07:24:59;;;;;;;4.63;1.00;;;21.60;65.30;;;;;;6055417;23;20077;-92
2022/06/25 07:27:24;;;;;;;4.35;1.00;;;21.50;65.20;;;;;;6081158;23;20014;-92
2022/06/25 07:29:50;;;;;;;1.52;0.57;;;21.50;65.10;;;;;;6056226;23;20014;-92
2022/06/25 07:32:16;;;;;;;5.53;0.98;;;21.50;65.00;;;;;;6055888;23;20011;-91
2022/06/25 07:34:42;;;;;;;3.30;1.13;;;21.50;65.00;;;;;;6053563;23;20022;-92
2022/06/25 07:37:08;;;;;;;4.72;0.80;;;21.50;65.00;;;;;;6057854;23;20454;-93
2022/06/25 07:39:34;;;;;;;3.85;1.00;;;21.50;64.90;;;;;;6080657;23;20517;-93
2022/06/25 07:42:00;;;;;;;5.28;1.60;;;21.50;65.00;;;;;;6056483;23;20013;-95
2022/06/25 07:44:26;;;;;;;2.58;0.82;;;21.60;65.10;;;;;;6056939;23;20022;-92
2022/06/25 07:46:52;;;;;;;5.68;1.20;;;21.60;65.10;;;;;;6056532;23;20010;-94
2022/06/25 07:49:17;;;;;;;7.32;1.00;;;21.60;65.10;;;;;;6056088;23;20466;-94
2022/06/25 07:52:00;;;;;;;3.03;0.98;;;21.60;65.20;;;;;;6054901;23;20083;-92
2022/06/25 07:54:31;;;;;;;6.28;1.30;;;21.60;65.30;;;;;;6062520;23;20386;-90
2022/06/25 07:56:58;;;;;;;6.13;0.98;;;21.60;65.20;;;;;;6031108;23;20354;-92
2022/06/25 07:59:24;;;;;;;4.00;1.02;;;21.70;65.30;;;;;;6031645;23;20015;-91
2022/06/25 08:01:50;;;;;;;4.57;0.85;;;21.60;65.20;;;;;;6054121;23;20007;-92
2022/06/25 08:04:16;;;;;;;5.20;1.30;;;21.70;65.20;;;;;;6077129;23;20019;-91
2022/06/25 08:06:44;;;;;;;1.95;0.70;;;21.60;65.00;;;;;;6032064;23;20030;-91
2022/06/25 08:09:10;;;;;;;4.07;0.90;;;21.60;65.10;;;;;;6056391;23;20420;-91
2022/06/25 08:11:36;;;;;;;3.50;0.93;;;21.60;65.00;;;;;;6034038;23;20022;-90
2022/06/25 08:14:03;;;;;;;3.78;1.00;;;21.60;65.00;;;;;;6056368;23;20465;-91
2022/06/25 08:16:29;;;;;;;3.70;1.20;;;21.60;65.10;;;;;;6032287;23;20227;-91
2022/06/25 08:18:55;;;;;;;5.15;1.00;;;21.60;65.10;;;;;;6083108;23;20094;-92
2022/06/25 08:21:21;;;;;;;5.60;1.20;;;21.60;65.10;;;;;;6087702;23;20532;-91
2022/06/25 15:02:51;;;;;;;;;;;21.20;62.80;;;;;;6117554;23;20324;-89
2022/06/25 15:05:19;;;;;;;0.77;0.60;;;21.20;62.90;;;;;;6036615;23;20204;-89
2022/06/25 15:07:46;;;;;;;2.13;0.30;;;21.20;62.90;;;;;;6062833;23;20049;-89
